createdAt,value
2018-04-02T00:00:01.923Z,100830.88
2018-04-02T00:00:23.987Z,100827.83
2018-04-02T00:00:46.089Z,100832.91
2018-04-02T00:01:08.145Z,100831.25
2018-04-02T00:01:30.202Z,100832.25
2018-04-02T00:01:52.272Z,100828.20
2018-04-02T00:02:15.198Z,100827.83
2018-04-02T00:02:38.024Z,100830.50
2018-04-02T00:03:00.075Z,100827.92
2018-04-02T00:03:22.114Z,100827.83
2018-04-02T00:03:44.206Z,100829.67
2018-04-02T00:04:06.265Z,100829.67
2018-04-02T00:04:28.314Z,100827.74
2018-04-02T00:04:50.381Z,100830.33
2018-04-02T00:05:12.448Z,100829.58
2018-04-02T00:05:34.507Z,100832.63
2018-04-02T00:05:56.571Z,100827.83
2018-04-02T00:06:18.628Z,100832.72
2018-04-02T00:06:40.683Z,100827.92
2018-04-02T00:07:02.723Z,100827.55
2018-04-02T00:07:24.798Z,100828.00
2018-04-02T00:07:46.927Z,100833.46
2018-04-02T00:08:08.980Z,100827.00
2018-04-02T00:08:31.055Z,100824.78
2018-04-02T00:08:53.255Z,100827.45
2018-04-02T00:09:15.278Z,100828.66
2018-04-02T00:09:37.333Z,100824.78
2018-04-02T00:09:59.389Z,100825.33
2018-04-02T00:10:22.212Z,100826.25
2018-04-02T00:10:45.036Z,100825.88
2018-04-02T00:11:07.091Z,100825.33
2018-04-02T00:11:29.196Z,100827.17
2018-04-02T00:11:52.018Z,100825.42
2018-04-02T00:12:14.836Z,100822.83
2018-04-02T00:12:36.925Z,100825.80
2018-04-02T00:12:58.986Z,100823.30
2018-04-02T00:13:21.046Z,100827.55
2018-04-02T00:13:43.117Z,100824.41
2018-04-02T00:14:05.286Z,100824.33
2018-04-02T00:14:27.349Z,100825.70
2018-04-02T00:14:49.422Z,100822.20
2018-04-02T00:15:11.494Z,100822.66
2018-04-02T00:15:33.537Z,100820.45
2018-04-02T00:15:55.637Z,100827.37
2018-04-02T00:16:18.466Z,100827.28
2018-04-02T00:16:41.329Z,100823.12
2018-04-02T00:17:03.385Z,100822.20
2018-04-02T00:17:25.433Z,100824.41
2018-04-02T00:17:47.506Z,100824.78
2018-04-02T00:18:09.575Z,100826.91
2018-04-02T00:18:32.484Z,100827.28
2018-04-02T00:18:54.575Z,100830.33
2018-04-02T00:19:16.679Z,100823.69
2018-04-02T00:19:38.858Z,100825.44
2018-04-02T00:20:00.909Z,100829.78
2018-04-02T00:20:22.969Z,100827.28
2018-04-02T00:20:45.133Z,100824.70
2018-04-02T00:21:07.956Z,100829.03
2018-04-02T00:21:30.803Z,100825.62
2018-04-02T00:21:53.620Z,100821.28
2018-04-02T00:22:15.690Z,100828.20
2018-04-02T00:22:37.740Z,100820.08
2018-04-02T00:22:59.811Z,100823.58
2018-04-02T00:23:21.878Z,100825.24
2018-04-02T00:23:43.950Z,100826.54
2018-04-02T00:24:05.978Z,100821.66
2018-04-02T00:24:28.065Z,100824.33
2018-04-02T00:24:50.116Z,100825.98
2018-04-02T00:25:12.163Z,100826.45
2018-04-02T00:25:34.209Z,100826.91
2018-04-02T00:25:56.264Z,100827.37
2018-04-02T00:26:18.319Z,100823.95
2018-04-02T00:26:40.366Z,100825.62
2018-04-02T00:27:02.485Z,100829.50
2018-04-02T00:27:24.545Z,100822.20
2018-04-02T00:27:46.636Z,100826.08
2018-04-02T00:28:08.700Z,100830.41
2018-04-02T00:28:30.753Z,100832.08
2018-04-02T00:28:52.843Z,100832.91
2018-04-02T00:29:14.885Z,100834.66
2018-04-02T00:29:37.715Z,100830.70
2018-04-02T00:30:00.545Z,100831.25
2018-04-02T00:30:23.385Z,100828.20
2018-04-02T00:30:46.212Z,100830.33
2018-04-02T00:31:09.031Z,100829.41
2018-04-02T00:31:31.085Z,100831.16
2018-04-02T00:31:53.162Z,100828.58
2018-04-02T00:32:15.224Z,100830.61
2018-04-02T00:32:37.282Z,100832.37
2018-04-02T00:32:59.350Z,100826.36
2018-04-02T00:33:22.186Z,100826.83
2018-04-02T00:33:45.051Z,100828.40
2018-04-02T00:34:07.101Z,100828.95
2018-04-02T00:34:29.305Z,100825.44
2018-04-02T00:34:51.369Z,100833.66
2018-04-02T00:35:14.205Z,100830.70
2018-04-02T00:35:37.024Z,100828.48
2018-04-02T00:35:59.855Z,100828.48
2018-04-02T00:36:21.921Z,100826.91
2018-04-02T00:36:43.980Z,100827.20
2018-04-02T00:37:06.010Z,100830.98
2018-04-02T00:37:28.079Z,100826.83
2018-04-02T00:37:50.140Z,100830.70
2018-04-02T00:38:12.203Z,100822.66
2018-04-02T00:38:34.273Z,100825.62
2018-04-02T00:38:56.350Z,100822.11
2018-04-02T00:39:18.417Z,100823.86
2018-04-02T00:39:40.501Z,100822.11
2018-04-02T00:40:02.563Z,100822.48
2018-04-02T00:40:25.394Z,100824.33
2018-04-02T00:40:48.308Z,100823.86
2018-04-02T00:41:10.369Z,100820.53
2018-04-02T00:41:32.469Z,100823.95
2018-04-02T00:41:55.280Z,100821.73
2018-04-02T00:42:17.379Z,100820.91
2018-04-02T00:42:39.429Z,100817.48
2018-04-02T00:43:01.472Z,100822.95
2018-04-02T00:43:23.532Z,100820.45
2018-04-02T00:43:46.357Z,100823.78
2018-04-02T00:44:08.413Z,100823.41
2018-04-02T00:44:30.482Z,100824.33
2018-04-02T00:44:52.536Z,100823.86
2018-04-02T00:45:14.591Z,100828.48
2018-04-02T00:45:36.645Z,100824.89
2018-04-02T00:45:58.786Z,100825.53
2018-04-02T00:46:20.830Z,100820.73
2018-04-02T00:46:43.653Z,100825.62
2018-04-02T00:47:05.711Z,100826.08
2018-04-02T00:47:27.776Z,100823.95
2018-04-02T00:47:49.830Z,100829.58
2018-04-02T00:48:11.888Z,100828.29
2018-04-02T00:48:33.935Z,100828.20
2018-04-02T00:48:55.977Z,100822.57
2018-04-02T00:49:18.805Z,100829.03
2018-04-02T00:49:41.637Z,100827.66
2018-04-02T00:50:04.493Z,100824.61
2018-04-02T00:50:26.558Z,100827.74
2018-04-02T00:50:48.629Z,100829.78
2018-04-02T00:51:10.825Z,100828.48
2018-04-02T00:51:33.652Z,100827.74
2018-04-02T00:51:55.696Z,100827.74
2018-04-02T00:52:17.744Z,100827.74
2018-04-02T00:52:39.808Z,100824.78
2018-04-02T00:53:02.701Z,100824.70
2018-04-02T00:53:24.714Z,100826.63
2018-04-02T00:53:46.792Z,100826.16
2018-04-02T00:54:09.621Z,100828.66
2018-04-02T00:54:32.476Z,100825.53
2018-04-02T00:54:54.535Z,100831.08
2018-04-02T00:55:16.650Z,100829.03
2018-04-02T00:55:38.713Z,100825.62
2018-04-02T00:56:01.532Z,100828.95
2018-04-02T00:56:23.574Z,100831.53
2018-04-02T00:56:45.630Z,100825.36
2018-04-02T00:57:07.676Z,100823.60
2018-04-02T00:57:29.742Z,100821.48
2018-04-02T00:57:51.798Z,100824.89
2018-04-02T00:58:13.866Z,100824.52
2018-04-02T00:58:35.921Z,100829.32
2018-04-02T00:58:57.984Z,100826.73
2018-04-02T00:59:20.792Z,100822.48
2018-04-02T00:59:42.861Z,100823.31
2018-04-02T01:00:04.938Z,100825.98
2018-04-02T01:00:27.012Z,100827.20
2018-04-02T01:00:49.079Z,100828.48
2018-04-02T01:01:11.905Z,100824.23
2018-04-02T01:01:33.994Z,100830.78
2018-04-02T01:01:56.041Z,100825.62
2018-04-02T01:02:18.095Z,100828.58
2018-04-02T01:02:40.150Z,100827.74
2018-04-02T01:03:02.219Z,100826.45
2018-04-02T01:03:25.045Z,100827.28
2018-04-02T01:03:47.868Z,100825.91
2018-04-02T01:04:09.935Z,100825.91
2018-04-02T01:04:31.986Z,100829.87
2018-04-02T01:04:54.063Z,100826.45
2018-04-02T01:05:16.133Z,100828.58
2018-04-02T01:05:38.990Z,100830.33
2018-04-02T01:06:01.806Z,100830.70
2018-04-02T01:06:23.852Z,100831.99
2018-04-02T01:06:45.928Z,100832.83
2018-04-02T01:07:07.993Z,100827.56
2018-04-02T01:07:30.067Z,100820.81
2018-04-02T01:07:52.116Z,100825.07
2018-04-02T01:08:14.945Z,100824.70
2018-04-02T01:08:37.770Z,100822.95
2018-04-02T01:09:00.592Z,100825.91
2018-04-02T01:09:22.645Z,100825.53
2018-04-02T01:09:44.696Z,100824.70
2018-04-02T01:10:07.526Z,100829.03
2018-04-02T01:10:29.598Z,100830.70
2018-04-02T01:10:52.442Z,100822.11
2018-04-02T01:11:15.320Z,100827.45
2018-04-02T01:11:37.364Z,100823.03
2018-04-02T01:11:59.426Z,100825.44
2018-04-02T01:12:21.480Z,100824.52
2018-04-02T01:12:43.539Z,100828.48
2018-04-02T01:13:06.350Z,100824.15
2018-04-02T01:13:28.414Z,100829.61
2018-04-02T01:13:50.481Z,100825.36
2018-04-02T01:14:12.543Z,100819.72
2018-04-02T01:14:34.592Z,100827.56
2018-04-02T01:14:56.655Z,100826.56
2018-04-02T01:15:19.494Z,100826.94
2018-04-02T01:15:42.312Z,100827.11
2018-04-02T01:16:04.414Z,100829.41
2018-04-02T01:16:26.471Z,100825.44
2018-04-02T01:16:49.292Z,100821.39
2018-04-02T01:17:12.103Z,100825.73
2018-04-02T01:17:34.156Z,100830.98
2018-04-02T01:17:56.982Z,100829.32
2018-04-02T01:18:19.822Z,100818.43
2018-04-02T01:18:42.654Z,100823.97
2018-04-02T01:19:05.480Z,100816.67
2018-04-02T01:19:27.536Z,100824.81
2018-04-02T01:19:49.608Z,100822.22
2018-04-02T01:20:11.681Z,100826.56
2018-04-02T01:20:33.736Z,100821.39
2018-04-02T01:20:55.785Z,100820.19
2018-04-02T01:21:18.599Z,100822.14
2018-04-02T01:21:40.662Z,100822.68
2018-04-02T01:22:02.722Z,100817.05
2018-04-02T01:22:24.782Z,100814.47
2018-04-02T01:22:46.841Z,100819.09
2018-04-02T01:23:08.895Z,100819.55
2018-04-02T01:23:31.728Z,100816.13
2018-04-02T01:23:54.555Z,100813.55
2018-04-02T01:24:16.607Z,100820.55
2018-04-02T01:24:38.658Z,100812.34
2018-04-02T01:25:00.726Z,100817.97
2018-04-02T01:25:23.551Z,100817.97
2018-04-02T01:25:46.370Z,100817.59
2018-04-02T01:26:08.429Z,100818.89
2018-04-02T01:26:30.548Z,100820.19
2018-04-02T01:26:52.622Z,100819.06
2018-04-02T01:27:14.687Z,100819.06
2018-04-02T01:27:36.754Z,100823.69
2018-04-02T01:27:58.894Z,100819.34
2018-04-02T01:28:21.713Z,100827.11
2018-04-02T01:28:44.539Z,100826.73
2018-04-02T01:29:06.615Z,100824.98
2018-04-02T01:29:28.697Z,100820.55
2018-04-02T01:29:51.514Z,100821.48
2018-04-02T01:30:13.581Z,100824.52
2018-04-02T01:30:35.655Z,100819.34
2018-04-02T01:30:57.722Z,100821.94
2018-04-02T01:31:19.778Z,100822.86
2018-04-02T01:31:41.861Z,100820.73
2018-04-02T01:32:03.917Z,100819.81
2018-04-02T01:32:25.973Z,100819.72
2018-04-02T01:32:48.030Z,100811.42
2018-04-02T01:33:10.093Z,100818.34
2018-04-02T01:33:32.163Z,100818.72
2018-04-02T01:33:54.225Z,100820.09
2018-04-02T01:34:17.054Z,100814.84
2018-04-02T01:34:39.879Z,100817.05
2018-04-02T01:35:01.957Z,100813.09
2018-04-02T01:35:24.022Z,100817.05
2018-04-02T01:35:46.072Z,100815.30
2018-04-02T01:36:08.148Z,100814.18
2018-04-02T01:36:30.196Z,100813.63
2018-04-02T01:36:52.258Z,100813.63
2018-04-02T01:37:14.320Z,100813.63
2018-04-02T01:37:37.157Z,100815.20
2018-04-02T01:37:59.972Z,100814.29
2018-04-02T01:38:22.043Z,100813.92
2018-04-02T01:38:44.110Z,100811.88
2018-04-02T01:39:06.170Z,100813.17
2018-04-02T01:39:28.239Z,100813.26
2018-04-02T01:39:50.309Z,100814.55
2018-04-02T01:40:12.365Z,100807.63
2018-04-02T01:40:34.432Z,100809.75
2018-04-02T01:40:56.484Z,100808.75
2018-04-02T01:41:18.544Z,100813.45
2018-04-02T01:41:41.366Z,100810.41
2018-04-02T01:42:03.504Z,100810.41
2018-04-02T01:42:26.311Z,100813.45
2018-04-02T01:42:48.355Z,100810.59
2018-04-02T01:43:11.140Z,100811.51
2018-04-02T01:43:33.316Z,100805.50
2018-04-02T01:43:55.378Z,100807.25
2018-04-02T01:44:17.430Z,100810.13
2018-04-02T01:44:40.247Z,100811.05
2018-04-02T01:45:02.299Z,100806.71
2018-04-02T01:45:24.370Z,100810.67
2018-04-02T01:45:46.426Z,100809.38
2018-04-02T01:46:09.294Z,100801.54
2018-04-02T01:46:31.339Z,100807.17
2018-04-02T01:46:53.400Z,100808.92
2018-04-02T01:47:16.256Z,100805.70
2018-04-02T01:47:38.304Z,100804.50
2018-04-02T01:48:00.351Z,100807.17
2018-04-02T01:48:22.415Z,100813.63
2018-04-02T01:48:44.464Z,100806.80
2018-04-02T01:49:06.517Z,100812.34
2018-04-02T01:49:29.340Z,100805.12
2018-04-02T01:49:51.391Z,100811.51
2018-04-02T01:50:13.450Z,100811.97
2018-04-02T01:50:35.505Z,100807.63
2018-04-02T01:50:58.330Z,100810.30
2018-04-02T01:51:21.158Z,100806.34
2018-04-02T01:51:43.216Z,100810.67
2018-04-02T01:52:05.306Z,100809.84
2018-04-02T01:52:27.402Z,100804.30
2018-04-02T01:52:49.447Z,100810.96
2018-04-02T01:53:12.273Z,100812.80
2018-04-02T01:53:35.091Z,100808.75
2018-04-02T01:53:57.150Z,100808.28
2018-04-02T01:54:19.212Z,100811.70
2018-04-02T01:54:41.277Z,100811.33
2018-04-02T01:55:03.327Z,100811.25
2018-04-02T01:55:25.379Z,100811.70
2018-04-02T01:55:47.425Z,100809.58
2018-04-02T01:56:09.497Z,100809.03
2018-04-02T01:56:31.544Z,100808.20
2018-04-02T01:56:54.411Z,100813.09
2018-04-02T01:57:17.335Z,100809.58
2018-04-02T01:57:39.427Z,100811.70
2018-04-02T01:58:01.476Z,100807.28
2018-04-02T01:58:23.541Z,100811.70
2018-04-02T01:58:45.583Z,100809.86
2018-04-02T01:59:08.409Z,100815.87
2018-04-02T01:59:30.456Z,100805.98
2018-04-02T01:59:52.509Z,100806.91
2018-04-02T02:00:14.583Z,100813.55
2018-04-02T02:00:37.410Z,100804.95
2018-04-02T02:01:00.239Z,100806.63
2018-04-02T02:01:23.172Z,100804.87
2018-04-02T02:01:45.219Z,100813.92
2018-04-02T02:02:07.264Z,100808.20
2018-04-02T02:02:29.320Z,100811.25
2018-04-02T02:02:51.398Z,100803.03
2018-04-02T02:03:13.454Z,100804.32
2018-04-02T02:03:35.501Z,100808.66
2018-04-02T02:03:57.556Z,100802.66
2018-04-02T02:04:19.584Z,100801.73
2018-04-02T02:04:41.634Z,100800.07
2018-04-02T02:05:04.459Z,100801.28
2018-04-02T02:05:26.530Z,100800.36
2018-04-02T02:05:48.580Z,100798.52
2018-04-02T02:06:10.626Z,100800.36
2018-04-02T02:06:33.460Z,100803.31
2018-04-02T02:06:56.293Z,100798.69
2018-04-02T02:07:19.161Z,100797.40
2018-04-02T02:07:41.218Z,100797.48
2018-04-02T02:08:03.300Z,100802.74
2018-04-02T02:08:25.537Z,100799.70
2018-04-02T02:08:47.586Z,100799.23
2018-04-02T02:09:09.650Z,100800.98
2018-04-02T02:09:31.714Z,100793.98
2018-04-02T02:09:53.774Z,100803.20
2018-04-02T02:10:15.806Z,100801.54
2018-04-02T02:10:37.861Z,100800.70
2018-04-02T02:10:59.909Z,100800.16
2018-04-02T02:11:22.737Z,100802.74
2018-04-02T02:11:45.558Z,100804.78
2018-04-02T02:12:07.623Z,100807.28
2018-04-02T02:12:29.671Z,100806.27
2018-04-02T02:12:51.720Z,100811.25
2018-04-02T02:13:14.582Z,100806.53
2018-04-02T02:13:36.648Z,100805.24
2018-04-02T02:13:58.701Z,100804.78
2018-04-02T02:14:21.520Z,100809.49
2018-04-02T02:14:43.572Z,100810.96
2018-04-02T02:15:05.635Z,100802.20
2018-04-02T02:15:27.720Z,100808.75
2018-04-02T02:15:49.828Z,100803.11
2018-04-02T02:16:11.893Z,100807.91
2018-04-02T02:16:33.971Z,100805.42
2018-04-02T02:16:56.021Z,100802.92
2018-04-02T02:17:18.080Z,100800.24
2018-04-02T02:17:40.888Z,100808.28
2018-04-02T02:18:02.945Z,100805.33
2018-04-02T02:18:25.021Z,100802.66
2018-04-02T02:18:47.081Z,100806.99
2018-04-02T02:19:09.205Z,100801.65
2018-04-02T02:19:31.272Z,100796.48
2018-04-02T02:19:53.320Z,100805.16
2018-04-02T02:20:16.129Z,100806.91
2018-04-02T02:20:38.198Z,100798.31
2018-04-02T02:21:00.269Z,100807.45
2018-04-02T02:21:22.328Z,100798.41
2018-04-02T02:21:44.383Z,100802.20
2018-04-02T02:22:06.434Z,100801.36
2018-04-02T02:22:29.249Z,100793.98
2018-04-02T02:22:51.293Z,100800.53
2018-04-02T02:23:14.111Z,100797.11
2018-04-02T02:23:36.965Z,100796.37
2018-04-02T02:23:59.025Z,100800.80
2018-04-02T02:24:21.089Z,100797.57
2018-04-02T02:24:43.921Z,100797.95
2018-04-02T02:25:06.733Z,100796.19
2018-04-02T02:25:28.781Z,100791.02
2018-04-02T02:25:51.612Z,100795.82
2018-04-02T02:26:14.440Z,100792.77
2018-04-02T02:26:37.286Z,100789.81
2018-04-02T02:27:00.099Z,100787.98
2018-04-02T02:27:22.148Z,100790.56
2018-04-02T02:27:44.208Z,100791.86
2018-04-02T02:28:06.312Z,100791.77
2018-04-02T02:28:28.360Z,100787.05
2018-04-02T02:28:50.413Z,100786.23
2018-04-02T02:29:12.526Z,100785.77
2018-04-02T02:29:34.594Z,100788.35
2018-04-02T02:29:56.754Z,100780.59
2018-04-02T02:30:19.565Z,100789.55
2018-04-02T02:30:41.619Z,100785.77
2018-04-02T02:31:03.680Z,100783.92
2018-04-02T02:31:26.489Z,100787.52
2018-04-02T02:31:48.577Z,100789.27
2018-04-02T02:32:11.454Z,100784.09
2018-04-02T02:32:33.511Z,100782.34
2018-04-02T02:32:55.579Z,100788.35
2018-04-02T02:33:17.627Z,100788.35
2018-04-02T02:33:39.685Z,100787.05
2018-04-02T02:34:02.546Z,100784.02
2018-04-02T02:34:24.615Z,100787.43
2018-04-02T02:34:46.682Z,100785.39
2018-04-02T02:35:08.851Z,100787.61
2018-04-02T02:35:30.986Z,100783.35
2018-04-02T02:35:53.816Z,100787.32
2018-04-02T02:36:15.872Z,100788.06
2018-04-02T02:36:37.938Z,100787.52
2018-04-02T02:36:59.996Z,100789.27
2018-04-02T02:37:22.161Z,100788.44
2018-04-02T02:37:44.218Z,100790.10
2018-04-02T02:38:07.046Z,100791.02
2018-04-02T02:38:29.870Z,100779.30
2018-04-02T02:38:51.896Z,100779.04
2018-04-02T02:39:14.756Z,100780.42
2018-04-02T02:39:36.834Z,100782.45
2018-04-02T02:39:58.889Z,100783.00
2018-04-02T02:40:20.953Z,100780.97
2018-04-02T02:40:43.041Z,100781.05
2018-04-02T02:41:05.102Z,100777.17
2018-04-02T02:41:27.299Z,100781.05
2018-04-02T02:41:49.359Z,100781.52
2018-04-02T02:42:12.188Z,100778.19
2018-04-02T02:42:35.019Z,100781.52
2018-04-02T02:42:57.078Z,100779.48
2018-04-02T02:43:19.151Z,100774.67
2018-04-02T02:43:41.206Z,100783.73
2018-04-02T02:44:03.326Z,100776.89
2018-04-02T02:44:25.416Z,100784.19
2018-04-02T02:44:48.215Z,100782.44
2018-04-02T02:45:10.282Z,100780.68
2018-04-02T02:45:33.101Z,100781.97
2018-04-02T02:45:55.938Z,100782.44
2018-04-02T02:46:18.870Z,100782.06
2018-04-02T02:46:40.965Z,100783.35
2018-04-02T02:47:03.013Z,100782.34
2018-04-02T02:47:25.824Z,100780.59
2018-04-02T02:47:47.877Z,100774.05
2018-04-02T02:48:10.702Z,100776.26
2018-04-02T02:48:33.529Z,100780.22
2018-04-02T02:48:56.365Z,100778.47
2018-04-02T02:49:19.225Z,100776.26
2018-04-02T02:49:41.330Z,100775.97
2018-04-02T02:50:04.157Z,100778.93
2018-04-02T02:50:27.001Z,100785.02
2018-04-02T02:50:49.840Z,100783.73
2018-04-02T02:51:12.671Z,100772.47
2018-04-02T02:51:35.506Z,100776.89
2018-04-02T02:51:58.332Z,100780.77
2018-04-02T02:52:21.155Z,100775.52
2018-04-02T02:52:43.215Z,100777.72
2018-04-02T02:53:05.274Z,100769.88
2018-04-02T02:53:27.338Z,100774.67
2018-04-02T02:53:49.478Z,100769.88
2018-04-02T02:54:11.538Z,100775.05
2018-04-02T02:54:33.607Z,100774.59
2018-04-02T02:54:55.656Z,100778.93
2018-04-02T02:55:17.725Z,100776.72
2018-04-02T02:55:40.535Z,100770.71
2018-04-02T02:56:02.591Z,100765.08
2018-04-02T02:56:24.639Z,100769.42
2018-04-02T02:56:46.701Z,100768.13
2018-04-02T02:57:09.529Z,100766.66
2018-04-02T02:57:32.349Z,100772.37
2018-04-02T02:57:54.421Z,100775.34
2018-04-02T02:58:16.472Z,100777.17
2018-04-02T02:58:38.533Z,100767.49
2018-04-02T02:59:00.597Z,100777.55
2018-04-02T02:59:22.661Z,100769.63
2018-04-02T02:59:45.526Z,100769.70
2018-04-02T03:00:07.604Z,100773.76
2018-04-02T03:00:30.420Z,100777.64
2018-04-02T03:00:52.493Z,100769.42
2018-04-02T03:01:14.539Z,100776.89
2018-04-02T03:01:36.604Z,100772.18
2018-04-02T03:01:59.435Z,100776.06
2018-04-02T03:02:22.250Z,100773.39
2018-04-02T03:02:44.309Z,100776.89
2018-04-02T03:03:06.369Z,100775.97
2018-04-02T03:03:28.429Z,100773.84
2018-04-02T03:03:50.492Z,100772.55
2018-04-02T03:04:12.555Z,100777.72
2018-04-02T03:04:35.378Z,100776.26
2018-04-02T03:04:58.199Z,100772.37
2018-04-02T03:05:20.289Z,100777.55
2018-04-02T03:05:43.107Z,100777.46
2018-04-02T03:06:05.169Z,100774.59
2018-04-02T03:06:27.318Z,100781.89
2018-04-02T03:06:50.144Z,100776.72
2018-04-02T03:07:13.127Z,100770.62
2018-04-02T03:07:35.183Z,100779.02
2018-04-02T03:07:57.246Z,100772.55
2018-04-02T03:08:19.335Z,100776.06
2018-04-02T03:08:42.167Z,100775.14
2018-04-02T03:09:04.991Z,100776.80
2018-04-02T03:09:27.060Z,100783.81
2018-04-02T03:09:49.138Z,100775.52
2018-04-02T03:10:11.988Z,100777.34
2018-04-02T03:10:34.884Z,100777.44
2018-04-02T03:10:56.940Z,100776.14
2018-04-02T03:11:19.759Z,100778.73
2018-04-02T03:11:42.581Z,100776.89
2018-04-02T03:12:04.636Z,100776.89
2018-04-02T03:12:26.688Z,100775.97
2018-04-02T03:12:48.745Z,100775.97
2018-04-02T03:13:11.661Z,100780.31
2018-04-02T03:13:33.713Z,100780.68
2018-04-02T03:13:56.531Z,100782.34
2018-04-02T03:14:19.385Z,100784.94
2018-04-02T03:14:42.201Z,100778.09
2018-04-02T03:15:04.257Z,100787.14
2018-04-02T03:15:26.302Z,100784.56
2018-04-02T03:15:48.399Z,100785.85
2018-04-02T03:16:10.460Z,100783.64
2018-04-02T03:16:32.531Z,100777.64
2018-04-02T03:16:54.562Z,100781.60
2018-04-02T03:17:16.617Z,100782.52
2018-04-02T03:17:38.668Z,100776.89
2018-04-02T03:18:00.738Z,100778.27
2018-04-02T03:18:22.798Z,100782.61
2018-04-02T03:18:45.612Z,100779.10
2018-04-02T03:19:08.431Z,100785.94
2018-04-02T03:19:30.477Z,100779.76
2018-04-02T03:19:53.300Z,100778.09
2018-04-02T03:20:15.444Z,100786.23
2018-04-02T03:20:37.499Z,100782.72
2018-04-02T03:20:59.553Z,100780.97
2018-04-02T03:21:22.374Z,100785.30
2018-04-02T03:21:44.423Z,100778.38
2018-04-02T03:22:07.245Z,100781.80
2018-04-02T03:22:30.064Z,100788.35
2018-04-02T03:22:52.112Z,100778.84
2018-04-02T03:23:14.945Z,100781.52
2018-04-02T03:23:37.761Z,100780.68
2018-04-02T03:23:59.811Z,100783.35
2018-04-02T03:24:21.860Z,100777.17
2018-04-02T03:24:43.915Z,100787.98
2018-04-02T03:25:06.745Z,100786.31
2018-04-02T03:25:28.802Z,100784.56
2018-04-02T03:25:50.879Z,100786.77
2018-04-02T03:26:12.937Z,100781.97
2018-04-02T03:26:34.988Z,100785.11
2018-04-02T03:26:57.124Z,100780.02
2018-04-02T03:27:19.176Z,100780.77
2018-04-02T03:27:41.233Z,100781.69
2018-04-02T03:28:03.310Z,100775.97
2018-04-02T03:28:25.369Z,100786.77
2018-04-02T03:28:47.466Z,100785.02
2018-04-02T03:29:09.521Z,100787.23
2018-04-02T03:29:31.613Z,100786.40
2018-04-02T03:29:53.683Z,100789.73
2018-04-02T03:30:16.518Z,100787.14
2018-04-02T03:30:39.399Z,100778.09
2018-04-02T03:31:01.478Z,100787.98
2018-04-02T03:31:24.322Z,100785.94
2018-04-02T03:31:46.387Z,100779.10
2018-04-02T03:32:08.441Z,100779.48
2018-04-02T03:32:31.266Z,100775.97
2018-04-02T03:32:53.330Z,100778.75
2018-04-02T03:33:15.482Z,100778.55
2018-04-02T03:33:37.520Z,100779.30
2018-04-02T03:34:00.336Z,100776.80
2018-04-02T03:34:22.387Z,100775.42
2018-04-02T03:34:45.273Z,100782.72
2018-04-02T03:35:07.333Z,100777.92
2018-04-02T03:35:30.148Z,100776.26
2018-04-02T03:35:52.218Z,100777.17
2018-04-02T03:36:14.282Z,100786.97
2018-04-02T03:36:36.332Z,100777.29
2018-04-02T03:36:59.169Z,100782.09
2018-04-02T03:37:21.982Z,100774.88
2018-04-02T03:37:44.044Z,100777.92
2018-04-02T03:38:06.102Z,100784.76
2018-04-02T03:38:28.161Z,100781.42
2018-04-02T03:38:50.222Z,100783.55
2018-04-02T03:39:12.279Z,100782.72
2018-04-02T03:39:35.104Z,100779.67
2018-04-02T03:39:57.161Z,100779.59
2018-04-02T03:40:19.213Z,100779.59
2018-04-02T03:40:41.294Z,100777.09
2018-04-02T03:41:03.358Z,100784.47
2018-04-02T03:41:25.436Z,100778.38
2018-04-02T03:41:47.547Z,100779.30
2018-04-02T03:42:09.605Z,100782.34
2018-04-02T03:42:31.667Z,100773.13
2018-04-02T03:42:53.725Z,100780.50
2018-04-02T03:43:15.776Z,100781.34
2018-04-02T03:43:37.836Z,100778.02
2018-04-02T03:43:59.909Z,100779.30
2018-04-02T03:44:21.982Z,100788.89
2018-04-02T03:44:44.028Z,100780.68
2018-04-02T03:45:06.053Z,100781.14
2018-04-02T03:45:28.105Z,100780.68
2018-04-02T03:45:50.165Z,100784.09
2018-04-02T03:46:12.228Z,100775.14
2018-04-02T03:46:35.067Z,100776.43
2018-04-02T03:46:57.903Z,100777.34
2018-04-02T03:47:20.733Z,100778.64
2018-04-02T03:47:43.576Z,100777.81
2018-04-02T03:48:05.650Z,100783.44
2018-04-02T03:48:27.701Z,100778.55
2018-04-02T03:48:50.511Z,100779.39
2018-04-02T03:49:12.570Z,100785.39
2018-04-02T03:49:34.643Z,100776.26
2018-04-02T03:49:56.687Z,100775.16
2018-04-02T03:50:19.543Z,100777.38
2018-04-02T03:50:41.638Z,100782.17
2018-04-02T03:51:04.452Z,100780.22
2018-04-02T03:51:26.541Z,100784.47
2018-04-02T03:51:48.633Z,100780.05
2018-04-02T03:52:10.701Z,100783.84
2018-04-02T03:52:32.763Z,100784.38
2018-04-02T03:52:54.822Z,100784.47
2018-04-02T03:53:16.871Z,100781.42
2018-04-02T03:53:39.711Z,100782.26
2018-04-02T03:54:02.536Z,100786.97
2018-04-02T03:54:24.594Z,100789.18
2018-04-02T03:54:46.645Z,100783.55
2018-04-02T03:55:08.697Z,100785.59
2018-04-02T03:55:31.507Z,100786.59
2018-04-02T03:55:53.562Z,100788.81
2018-04-02T03:56:16.382Z,100788.89
2018-04-02T03:56:39.187Z,100789.27
2018-04-02T03:57:01.489Z,100785.39
2018-04-02T03:57:23.548Z,100790.94
2018-04-02T03:57:45.605Z,100790.02
2018-04-02T03:58:07.690Z,100787.52
2018-04-02T03:58:30.507Z,100783.64
2018-04-02T03:58:52.554Z,100786.14
2018-04-02T03:59:15.380Z,100782.72
2018-04-02T03:59:38.199Z,100783.64
2018-04-02T04:00:00.258Z,100791.02
2018-04-02T04:00:22.322Z,100778.38
2018-04-02T04:00:44.383Z,100777.00
2018-04-02T04:01:07.229Z,100786.05
2018-04-02T04:01:29.281Z,100789.09
2018-04-02T04:01:51.354Z,100777.27
2018-04-02T04:02:14.192Z,100778.19
2018-04-02T04:02:36.240Z,100778.09
2018-04-02T04:02:58.256Z,100789.81
2018-04-02T04:03:20.292Z,100783.18
2018-04-02T04:03:42.355Z,100785.30
2018-04-02T04:04:11.025Z,100786.05
2018-04-02T04:06:13.573Z,100779.76
2018-04-02T04:06:35.662Z,100787.14
2018-04-02T04:06:57.704Z,100777.92
2018-04-02T04:07:19.802Z,100783.00
2018-04-02T04:07:41.855Z,100774.70
2018-04-02T04:08:04.668Z,100781.80
2018-04-02T04:08:26.723Z,100780.05
2018-04-02T04:08:48.778Z,100783.09
2018-04-02T04:09:10.979Z,100774.88
2018-04-02T04:09:33.044Z,100783.47
2018-04-02T04:09:55.102Z,100768.70
2018-04-02T04:10:17.276Z,100773.58
2018-04-02T04:10:39.349Z,100780.50
2018-04-02T04:11:01.400Z,100775.99
2018-04-02T04:11:23.464Z,100779.96
2018-04-02T04:11:46.288Z,100779.96
2018-04-02T04:12:09.135Z,100778.67
2018-04-02T04:12:31.996Z,100776.08
2018-04-02T04:12:54.052Z,100779.96
2018-04-02T04:13:16.096Z,100778.67
2018-04-02T04:13:38.937Z,100774.79
2018-04-02T04:14:01.757Z,100776.45
2018-04-02T04:14:24.579Z,100771.38
2018-04-02T04:14:46.645Z,100774.42
2018-04-02T04:15:08.691Z,100776.45
2018-04-02T04:15:30.741Z,100780.05
2018-04-02T04:15:52.784Z,100779.30